sensor_id;sensor_type;location;lat;lon;timestamp;temperature;humidity
20432;DHT22;10375;49.136;10.366;2024-03-25T00:00:36;4.10;99.90
20432;DHT22;10375;49.136;10.366;2024-03-25T00:03:05;4.10;99.90
20432;DHT22;10375;49.136;10.366;2024-03-25T00:05:32;4.00;99.90
20432;DHT22;10375;49.136;10.366;2024-03-25T00:07:58;4.00;99.90
20432;DHT22;10375;49.136;10.366;2024-03-25T00:10:24;3.90;99.90
20432;DHT22;10375;49.136;10.366;2024-03-25T00:12:53;3.90;99.90
20432;DHT22;10375;49.136;10.366;2024-03-25T00:15:21;3.80;99.90
20432;DHT22;10375;49.136;10.366;2024-03-25T00:17:56;3.90;99.90
20432;DHT22;10375;49.136;10.366;2024-03-25T00:20:23;3.90;99.90
20432;DHT22;10375;49.136;10.366;2024-03-25T00:22:50;3.90;99.90
20432;DHT22;10375;49.136;10.366;2024-03-25T00:25:19;3.80;99.90
20432;DHT22;10375;49.136;10.366;2024-03-25T00:27:45;3.80;99.90
20432;DHT22;10375;49.136;10.366;2024-03-25T00:30:12;3.70;99.90
20432;DHT22;10375;49.136;10.366;2024-03-25T00:32:39;3.60;99.90
20432;DHT22;10375;49.136;10.366;2024-03-25T00:35:06;3.70;99.90
20432;DHT22;10375;49.136;10.366;2024-03-25T00:37:32;3.70;99.90
20432;DHT22;10375;49.136;10.366;2024-03-25T00:40:01;3.70;99.90
20432;DHT22;10375;49.136;10.366;2024-03-25T00:42:28;3.80;99.90
20432;DHT22;10375;49.136;10.366;2024-03-25T00:44:54;3.90;99.90
20432;DHT22;10375;49.136;10.366;2024-03-25T00:47:24;3.80;99.90
20432;DHT22;10375;49.136;10.366;2024-03-25T00:49:52;3.80;99.90
20432;DHT22;10375;49.136;10.366;2024-03-25T00:52:19;3.80;99.90
20432;DHT22;10375;49.136;10.366;2024-03-25T00:54:52;3.70;99.90
20432;DHT22;10375;49.136;10.366;2024-03-25T00:57:18;3.70;99.90
20432;DHT22;10375;49.136;10.366;2024-03-25T00:59:45;3.60;99.90
20432;DHT22;10375;49.136;10.366;2024-03-25T01:02:23;3.60;99.90
20432;DHT22;10375;49.136;10.366;2024-03-25T01:04:49;3.70;99.90
20432;DHT22;10375;49.136;10.366;2024-03-25T01:07:15;3.60;99.90
20432;DHT22;10375;49.136;10.366;2024-03-25T01:10:00;3.60;99.90
20432;DHT22;10375;49.136;10.366;2024-03-25T01:12:26;3.60;99.90
20432;DHT22;10375;49.136;10.366;2024-03-25T01:14:53;3.70;99.90
20432;DHT22;10375;49.136;10.366;2024-03-25T01:17:19;3.60;99.90
20432;DHT22;10375;49.136;10.366;2024-03-25T01:19:49;3.70;99.90
20432;DHT22;10375;49.136;10.366;2024-03-25T01:22:15;3.70;99.90
20432;DHT22;10375;49.136;10.366;2024-03-25T01:24:41;3.70;99.90
20432;DHT22;10375;49.136;10.366;2024-03-25T01:27:07;3.70;99.90
20432;DHT22;10375;49.136;10.366;2024-03-25T01:29:33;3.80;99.90
20432;DHT22;10375;49.136;10.366;2024-03-25T01:31:59;3.80;99.90
20432;DHT22;10375;49.136;10.366;2024-03-25T01:34:26;3.80;99.90
20432;DHT22;10375;49.136;10.366;2024-03-25T01:36:52;3.80;99.90
20432;DHT22;10375;49.136;10.366;2024-03-25T01:39:19;3.80;99.90
20432;DHT22;10375;49.136;10.366;2024-03-25T01:41:45;3.70;99.90
20432;DHT22;10375;49.136;10.366;2024-03-25T01:44:12;3.80;99.90
20432;DHT22;10375;49.136;10.366;2024-03-25T01:46:38;3.80;99.90
20432;DHT22;10375;49.136;10.366;2024-03-25T01:49:06;3.80;99.90
20432;DHT22;10375;49.136;10.366;2024-03-25T01:51:33;3.70;99.90
20432;DHT22;10375;49.136;10.366;2024-03-25T01:54:00;3.70;99.90
20432;DHT22;10375;49.136;10.366;2024-03-25T01:56:27;3.60;99.90
20432;DHT22;10375;49.136;10.366;2024-03-25T01:58:55;3.60;99.90
20432;DHT22;10375;49.136;10.366;2024-03-25T02:01:22;3.60;99.90
20432;DHT22;10375;49.136;10.366;2024-03-25T02:03:48;3.50;99.90
20432;DHT22;10375;49.136;10.366;2024-03-25T02:06:17;3.40;99.90
20432;DHT22;10375;49.136;10.366;2024-03-25T02:08:43;3.50;99.90
20432;DHT22;10375;49.136;10.366;2024-03-25T02:11:11;3.40;99.90
20432;DHT22;10375;49.136;10.366;2024-03-25T02:13:38;3.40;99.90
20432;DHT22;10375;49.136;10.366;2024-03-25T02:16:05;3.40;99.90
20432;DHT22;10375;49.136;10.366;2024-03-25T02:18:31;3.40;99.90
20432;DHT22;10375;49.136;10.366;2024-03-25T02:20:58;3.50;99.90
20432;DHT22;10375;49.136;10.366;2024-03-25T02:23:25;3.50;99.90
20432;DHT22;10375;49.136;10.366;2024-03-25T02:25:52;3.60;99.90
20432;DHT22;10375;49.136;10.366;2024-03-25T02:28:19;3.60;99.90
20432;DHT22;10375;49.136;10.366;2024-03-25T02:30:45;3.60;99.90
20432;DHT22;10375;49.136;10.366;2024-03-25T02:33:11;3.70;99.90
20432;DHT22;10375;49.136;10.366;2024-03-25T02:35:38;3.60;99.90
20432;DHT22;10375;49.136;10.366;2024-03-25T02:38:05;3.60;99.90
20432;DHT22;10375;49.136;10.366;2024-03-25T02:40:32;3.60;99.90
20432;DHT22;10375;49.136;10.366;2024-03-25T02:42:58;3.60;99.90
20432;DHT22;10375;49.136;10.366;2024-03-25T02:45:25;3.60;99.90
20432;DHT22;10375;49.136;10.366;2024-03-25T02:47:52;3.50;99.90
20432;DHT22;10375;49.136;10.366;2024-03-25T02:50:18;3.50;99.90
20432;DHT22;10375;49.136;10.366;2024-03-25T02:52:44;3.40;99.90
20432;DHT22;10375;49.136;10.366;2024-03-25T02:55:10;3.40;99.90
20432;DHT22;10375;49.136;10.366;2024-03-25T02:57:36;3.30;99.90
20432;DHT22;10375;49.136;10.366;2024-03-25T03:00:02;3.30;99.90
20432;DHT22;10375;49.136;10.366;2024-03-25T03:02:29;3.30;99.90
20432;DHT22;10375;49.136;10.366;2024-03-25T03:04:55;3.40;99.90
20432;DHT22;10375;49.136;10.366;2024-03-25T03:07:21;3.30;99.90
20432;DHT22;10375;49.136;10.366;2024-03-25T03:09:48;3.40;99.90
20432;DHT22;10375;49.136;10.366;2024-03-25T03:12:14;3.30;99.90
20432;DHT22;10375;49.136;10.366;2024-03-25T03:14:40;3.40;99.90
20432;DHT22;10375;49.136;10.366;2024-03-25T03:17:06;3.50;99.90
20432;DHT22;10375;49.136;10.366;2024-03-25T03:19:32;3.50;99.90
20432;DHT22;10375;49.136;10.366;2024-03-25T03:21:58;3.50;99.90
20432;DHT22;10375;49.136;10.366;2024-03-25T03:24:25;3.50;99.90
20432;DHT22;10375;49.136;10.366;2024-03-25T03:26:51;3.50;99.90
20432;DHT22;10375;49.136;10.366;2024-03-25T03:29:18;3.40;99.90
20432;DHT22;10375;49.136;10.366;2024-03-25T03:31:44;3.40;99.90
20432;DHT22;10375;49.136;10.366;2024-03-25T03:34:10;3.40;99.90
20432;DHT22;10375;49.136;10.366;2024-03-25T03:36:36;3.30;99.90
20432;DHT22;10375;49.136;10.366;2024-03-25T03:39:02;3.20;99.90
20432;DHT22;10375;49.136;10.366;2024-03-25T03:41:29;3.20;99.90
20432;DHT22;10375;49.136;10.366;2024-03-25T03:43:55;3.10;99.90
20432;DHT22;10375;49.136;10.366;2024-03-25T03:46:21;3.10;99.90
20432;DHT22;10375;49.136;10.366;2024-03-25T03:48:47;3.20;99.90
20432;DHT22;10375;49.136;10.366;2024-03-25T03:51:14;3.20;99.90
20432;DHT22;10375;49.136;10.366;2024-03-25T03:53:40;3.30;99.90
20432;DHT22;10375;49.136;10.366;2024-03-25T03:56:06;3.40;99.90
20432;DHT22;10375;49.136;10.366;2024-03-25T03:58:33;3.40;99.90
20432;DHT22;10375;49.136;10.366;2024-03-25T04:01:00;3.50;99.90
20432;DHT22;10375;49.136;10.366;2024-03-25T04:03:28;3.50;99.90
20432;DHT22;10375;49.136;10.366;2024-03-25T04:05:54;3.60;99.90
20432;DHT22;10375;49.136;10.366;2024-03-25T04:08:22;3.70;99.90
20432;DHT22;10375;49.136;10.366;2024-03-25T04:10:48;3.70;99.90
20432;DHT22;10375;49.136;10.366;2024-03-25T04:13:15;3.80;99.90
20432;DHT22;10375;49.136;10.366;2024-03-25T04:15:42;3.70;99.90
20432;DHT22;10375;49.136;10.366;2024-03-25T04:18:08;3.70;99.90
20432;DHT22;10375;49.136;10.366;2024-03-25T04:20:39;3.70;99.90
20432;DHT22;10375;49.136;10.366;2024-03-25T04:23:06;3.60;99.90
20432;DHT22;10375;49.136;10.366;2024-03-25T04:25:36;3.60;99.90
20432;DHT22;10375;49.136;10.366;2024-03-25T04:28:05;3.60;99.90
20432;DHT22;10375;49.136;10.366;2024-03-25T04:30:32;3.50;99.90
20432;DHT22;10375;49.136;10.366;2024-03-25T04:33:00;3.60;99.90
20432;DHT22;10375;49.136;10.366;2024-03-25T04:35:26;3.60;99.90
20432;DHT22;10375;49.136;10.366;2024-03-25T04:37:52;3.60;99.90
20432;DHT22;10375;49.136;10.366;2024-03-25T04:40:18;3.50;99.90
20432;DHT22;10375;49.136;10.366;2024-03-25T04:42:45;3.50;99.90
20432;DHT22;10375;49.136;10.366;2024-03-25T04:45:12;3.50;99.90
20432;DHT22;10375;49.136;10.366;2024-03-25T04:47:39;3.50;99.90
20432;DHT22;10375;49.136;10.366;2024-03-25T04:50:06;3.50;99.90
20432;DHT22;10375;49.136;10.366;2024-03-25T04:52:32;3.60;99.90
20432;DHT22;10375;49.136;10.366;2024-03-25T04:54:58;3.60;99.90
20432;DHT22;10375;49.136;10.366;2024-03-25T04:57:25;3.60;99.90
20432;DHT22;10375;49.136;10.366;2024-03-25T04:59:51;3.60;99.90
20432;DHT22;10375;49.136;10.366;2024-03-25T05:02:17;3.50;99.90
20432;DHT22;10375;49.136;10.366;2024-03-25T05:04:43;3.50;99.90
20432;DHT22;10375;49.136;10.366;2024-03-25T05:07:09;3.50;99.90
20432;DHT22;10375;49.136;10.366;2024-03-25T05:09:36;3.40;99.90
20432;DHT22;10375;49.136;10.366;2024-03-25T05:12:02;3.40;99.90
20432;DHT22;10375;49.136;10.366;2024-03-25T05:14:28;3.40;99.90
20432;DHT22;10375;49.136;10.366;2024-03-25T05:16:54;3.40;99.90
20432;DHT22;10375;49.136;10.366;2024-03-25T05:19:44;3.40;99.90
20432;DHT22;10375;49.136;10.366;2024-03-25T05:22:10;3.30;99.90
20432;DHT22;10375;49.136;10.366;2024-03-25T05:24:36;3.30;99.90
20432;DHT22;10375;49.136;10.366;2024-03-25T05:27:02;3.30;99.90
20432;DHT22;10375;49.136;10.366;2024-03-25T05:29:29;3.30;99.90
20432;DHT22;10375;49.136;10.366;2024-03-25T05:32:00;3.30;99.90
20432;DHT22;10375;49.136;10.366;2024-03-25T05:34:27;3.40;99.90
20432;DHT22;10375;49.136;10.366;2024-03-25T05:36:54;3.50;99.90
20432;DHT22;10375;49.136;10.366;2024-03-25T05:39:20;3.60;99.90
20432;DHT22;10375;49.136;10.366;2024-03-25T05:41:47;3.70;99.90
20432;DHT22;10375;49.136;10.366;2024-03-25T05:44:13;3.80;99.90
20432;DHT22;10375;49.136;10.366;2024-03-25T05:46:40;3.90;99.90
20432;DHT22;10375;49.136;10.366;2024-03-25T05:49:06;4.00;99.90
20432;DHT22;10375;49.136;10.366;2024-03-25T05:51:32;4.10;99.90
20432;DHT22;10375;49.136;10.366;2024-03-25T05:54:02;4.20;99.90
20432;DHT22;10375;49.136;10.366;2024-03-25T05:56:28;4.30;99.90
20432;DHT22;10375;49.136;10.366;2024-03-25T05:58:58;4.30;99.90
20432;DHT22;10375;49.136;10.366;2024-03-25T06:01:24;4.40;99.90
20432;DHT22;10375;49.136;10.366;2024-03-25T06:03:51;4.60;99.90
20432;DHT22;10375;49.136;10.366;2024-03-25T06:06:17;4.70;99.90
20432;DHT22;10375;49.136;10.366;2024-03-25T06:08:43;4.80;99.90
20432;DHT22;10375;49.136;10.366;2024-03-25T06:11:09;5.00;99.90
20432;DHT22;10375;49.136;10.366;2024-03-25T06:13:38;5.50;99.90
20432;DHT22;10375;49.136;10.366;2024-03-25T06:16:04;6.60;99.90
20432;DHT22;10375;49.136;10.366;2024-03-25T06:18:30;6.90;99.90
20432;DHT22;10375;49.136;10.366;2024-03-25T06:20:57;7.10;99.90
20432;DHT22;10375;49.136;10.366;2024-03-25T06:25:53;8.80;99.90
20432;DHT22;10375;49.136;10.366;2024-03-25T06:28:20;10.50;99.90
20432;DHT22;10375;49.136;10.366;2024-03-25T06:30:47;12.10;99.90
20432;DHT22;10375;49.136;10.366;2024-03-25T06:33:32;12.00;99.90
20432;DHT22;10375;49.136;10.366;2024-03-25T06:36:18;10.60;99.90
20432;DHT22;10375;49.136;10.366;2024-03-25T06:38:45;9.20;99.90
20432;DHT22;10375;49.136;10.366;2024-03-25T06:41:11;8.20;99.90
20432;DHT22;10375;49.136;10.366;2024-03-25T06:43:37;7.70;99.90
20432;DHT22;10375;49.136;10.366;2024-03-25T06:46:07;7.20;99.90
20432;DHT22;10375;49.136;10.366;2024-03-25T06:48:34;6.80;99.90
20432;DHT22;10375;49.136;10.366;2024-03-25T06:51:01;7.50;99.90
20432;DHT22;10375;49.136;10.366;2024-03-25T06:53:30;8.10;99.90
20432;DHT22;10375;49.136;10.366;2024-03-25T06:55:59;8.30;99.90
20432;DHT22;10375;49.136;10.366;2024-03-25T06:58:43;8.70;99.90
20432;DHT22;10375;49.136;10.366;2024-03-25T07:01:10;10.60;99.90
20432;DHT22;10375;49.136;10.366;2024-03-25T07:03:40;11.10;99.90
20432;DHT22;10375;49.136;10.366;2024-03-25T07:06:06;12.90;99.90
20432;DHT22;10375;49.136;10.366;2024-03-25T07:08:32;12.50;99.90
20432;DHT22;10375;49.136;10.366;2024-03-25T07:10:59;11.40;99.90
20432;DHT22;10375;49.136;10.366;2024-03-25T07:13:25;11.90;99.90
20432;DHT22;10375;49.136;10.366;2024-03-25T07:15:52;11.60;99.90
20432;DHT22;10375;49.136;10.366;2024-03-25T07:18:18;10.40;99.90
20432;DHT22;10375;49.136;10.366;2024-03-25T07:20:44;9.50;99.90
20432;DHT22;10375;49.136;10.366;2024-03-25T07:23:11;10.20;99.90
20432;DHT22;10375;49.136;10.366;2024-03-25T07:25:37;13.30;99.90
20432;DHT22;10375;49.136;10.366;2024-03-25T07:28:04;14.70;99.90
20432;DHT22;10375;49.136;10.366;2024-03-25T07:30:30;16.80;99.90
20432;DHT22;10375;49.136;10.366;2024-03-25T07:32:59;17.90;99.90
20432;DHT22;10375;49.136;10.366;2024-03-25T07:35:26;17.80;97.80
20432;DHT22;10375;49.136;10.366;2024-03-25T07:37:52;15.70;98.90
20432;DHT22;10375;49.136;10.366;2024-03-25T07:40:19;13.70;99.90
20432;DHT22;10375;49.136;10.366;2024-03-25T07:42:45;12.20;99.90
20432;DHT22;10375;49.136;10.366;2024-03-25T07:45:11;12.00;99.90
20432;DHT22;10375;49.136;10.366;2024-03-25T07:47:37;13.90;99.90
20432;DHT22;10375;49.136;10.366;2024-03-25T07:50:05;14.40;99.90
20432;DHT22;10375;49.136;10.366;2024-03-25T07:52:31;12.50;99.90
20432;DHT22;10375;49.136;10.366;2024-03-25T07:54:58;11.60;99.90
20432;DHT22;10375;49.136;10.366;2024-03-25T07:57:25;12.70;99.90
20432;DHT22;10375;49.136;10.366;2024-03-25T07:59:55;13.80;99.90
20432;DHT22;10375;49.136;10.366;2024-03-25T08:02:25;15.00;99.90
20432;DHT22;10375;49.136;10.366;2024-03-25T08:04:51;14.60;99.30
20432;DHT22;10375;49.136;10.366;2024-03-25T08:07:17;14.90;99.70
20432;DHT22;10375;49.136;10.366;2024-03-25T08:09:44;14.20;97.30
20432;DHT22;10375;49.136;10.366;2024-03-25T08:12:11;12.60;99.30
20432;DHT22;10375;49.136;10.366;2024-03-25T08:14:37;11.10;99.90
20432;DHT22;10375;49.136;10.366;2024-03-25T08:17:05;10.10;99.90
20432;DHT22;10375;49.136;10.366;2024-03-25T08:19:31;10.20;99.90
20432;DHT22;10375;49.136;10.366;2024-03-25T08:21:58;11.00;99.90
20432;DHT22;10375;49.136;10.366;2024-03-25T08:24:24;11.50;99.90
20432;DHT22;10375;49.136;10.366;2024-03-25T08:26:50;11.70;99.90
20432;DHT22;10375;49.136;10.366;2024-03-25T08:29:16;11.80;99.90
20432;DHT22;10375;49.136;10.366;2024-03-25T08:31:43;12.00;99.90
20432;DHT22;10375;49.136;10.366;2024-03-25T08:34:09;11.90;99.90
20432;DHT22;10375;49.136;10.366;2024-03-25T08:36:35;12.20;99.90
20432;DHT22;10375;49.136;10.366;2024-03-25T08:39:01;12.30;99.90
20432;DHT22;10375;49.136;10.366;2024-03-25T08:41:27;12.00;99.50
20432;DHT22;10375;49.136;10.366;2024-03-25T08:43:55;12.20;99.90
20432;DHT22;10375;49.136;10.366;2024-03-25T08:46:20;12.80;99.90
20432;DHT22;10375;49.136;10.366;2024-03-25T08:48:47;13.20;99.90
20432;DHT22;10375;49.136;10.366;2024-03-25T08:51:13;13.80;99.90
20432;DHT22;10375;49.136;10.366;2024-03-25T08:53:39;14.10;99.00
20432;DHT22;10375;49.136;10.366;2024-03-25T08:56:05;13.70;98.60
20432;DHT22;10375;49.136;10.366;2024-03-25T08:58:31;13.10;98.70
20432;DHT22;10375;49.136;10.366;2024-03-25T09:00:58;12.70;99.90
20432;DHT22;10375;49.136;10.366;2024-03-25T09:03:24;12.30;99.90
20432;DHT22;10375;49.136;10.366;2024-03-25T09:05:50;12.10;99.90
20432;DHT22;10375;49.136;10.366;2024-03-25T09:08:16;12.30;99.90
20432;DHT22;10375;49.136;10.366;2024-03-25T09:10:46;12.70;99.90
20432;DHT22;10375;49.136;10.366;2024-03-25T09:13:37;13.40;99.90
20432;DHT22;10375;49.136;10.366;2024-03-25T09:16:03;13.50;99.00
20432;DHT22;10375;49.136;10.366;2024-03-25T09:18:30;13.40;99.20
20432;DHT22;10375;49.136;10.366;2024-03-25T09:20:56;13.30;99.40
20432;DHT22;10375;49.136;10.366;2024-03-25T09:26:25;12.50;99.40
20432;DHT22;10375;49.136;10.366;2024-03-25T09:28:54;11.80;99.90
20432;DHT22;10375;49.136;10.366;2024-03-25T09:31:20;11.30;99.90
20432;DHT22;10375;49.136;10.366;2024-03-25T09:36:32;10.80;99.60
20432;DHT22;10375;49.136;10.366;2024-03-25T09:38:59;10.40;99.90
20432;DHT22;10375;49.136;10.366;2024-03-25T09:41:28;10.30;99.90
20432;DHT22;10375;49.136;10.366;2024-03-25T09:43:55;10.10;99.00
20432;DHT22;10375;49.136;10.366;2024-03-25T09:46:23;9.90;99.90
20432;DHT22;10375;49.136;10.366;2024-03-25T09:48:53;10.50;99.90
20432;DHT22;10375;49.136;10.366;2024-03-25T09:51:20;11.30;99.90
20432;DHT22;10375;49.136;10.366;2024-03-25T09:53:46;12.10;99.90
20432;DHT22;10375;49.136;10.366;2024-03-25T09:56:15;12.60;98.80
20432;DHT22;10375;49.136;10.366;2024-03-25T09:58:42;13.10;96.80
20432;DHT22;10375;49.136;10.366;2024-03-25T10:01:09;13.30;98.20
20432;DHT22;10375;49.136;10.366;2024-03-25T10:03:35;13.80;96.50
20432;DHT22;10375;49.136;10.366;2024-03-25T10:06:04;13.80;96.40
20432;DHT22;10375;49.136;10.366;2024-03-25T10:08:31;14.10;96.10
20432;DHT22;10375;49.136;10.366;2024-03-25T10:10:57;13.90;95.80
20432;DHT22;10375;49.136;10.366;2024-03-25T10:13:24;13.80;95.20
20432;DHT22;10375;49.136;10.366;2024-03-25T10:15:50;13.90;93.90
20432;DHT22;10375;49.136;10.366;2024-03-25T10:18:17;13.80;94.70
20432;DHT22;10375;49.136;10.366;2024-03-25T10:20:50;13.70;94.70
20432;DHT22;10375;49.136;10.366;2024-03-25T10:23:20;13.90;95.90
20432;DHT22;10375;49.136;10.366;2024-03-25T10:25:48;14.10;94.40
20432;DHT22;10375;49.136;10.366;2024-03-25T10:28:14;14.10;96.90
20432;DHT22;10375;49.136;10.366;2024-03-25T10:30:40;14.50;93.30
20432;DHT22;10375;49.136;10.366;2024-03-25T10:33:09;15.00;95.80
20432;DHT22;10375;49.136;10.366;2024-03-25T10:35:39;15.40;95.10
20432;DHT22;10375;49.136;10.366;2024-03-25T10:38:09;15.80;95.10
20432;DHT22;10375;49.136;10.366;2024-03-25T10:40:39;16.20;93.50
20432;DHT22;10375;49.136;10.366;2024-03-25T10:43:09;16.60;91.40
20432;DHT22;10375;49.136;10.366;2024-03-25T10:45:47;17.00;92.80
20432;DHT22;10375;49.136;10.366;2024-03-25T10:48:28;17.10;92.90
20432;DHT22;10375;49.136;10.366;2024-03-25T10:50:57;17.40;90.80
20432;DHT22;10375;49.136;10.366;2024-03-25T10:53:25;17.30;89.20
20432;DHT22;10375;49.136;10.366;2024-03-25T10:55:55;17.10;91.50
20432;DHT22;10375;49.136;10.366;2024-03-25T10:58:22;17.30;93.10
20432;DHT22;10375;49.136;10.366;2024-03-25T11:00:49;17.10;90.90
20432;DHT22;10375;49.136;10.366;2024-03-25T11:03:16;17.00;91.50
20432;DHT22;10375;49.136;10.366;2024-03-25T11:05:43;17.10;91.30
20432;DHT22;10375;49.136;10.366;2024-03-25T11:08:13;17.30;90.60
20432;DHT22;10375;49.136;10.366;2024-03-25T11:10:50;17.60;91.50
20432;DHT22;10375;49.136;10.366;2024-03-25T11:13:19;17.70;89.10
20432;DHT22;10375;49.136;10.366;2024-03-25T11:15:47;17.80;88.30
20432;DHT22;10375;49.136;10.366;2024-03-25T11:18:17;17.10;86.10
20432;DHT22;10375;49.136;10.366;2024-03-25T11:20:44;17.10;87.30
20432;DHT22;10375;49.136;10.366;2024-03-25T11:23:12;17.40;89.90
20432;DHT22;10375;49.136;10.366;2024-03-25T11:25:39;17.70;89.10
20432;DHT22;10375;49.136;10.366;2024-03-25T11:28:06;17.80;84.10
20432;DHT22;10375;49.136;10.366;2024-03-25T11:30:32;17.80;86.60
20432;DHT22;10375;49.136;10.366;2024-03-25T11:33:02;18.00;86.10
20432;DHT22;10375;49.136;10.366;2024-03-25T11:35:29;18.20;86.00
20432;DHT22;10375;49.136;10.366;2024-03-25T11:37:55;18.00;83.80
20432;DHT22;10375;49.136;10.366;2024-03-25T11:40:21;17.40;81.70
20432;DHT22;10375;49.136;10.366;2024-03-25T11:42:47;16.70;83.20
20432;DHT22;10375;49.136;10.366;2024-03-25T11:45:15;16.50;80.70
20432;DHT22;10375;49.136;10.366;2024-03-25T11:47:43;16.50;87.30
20432;DHT22;10375;49.136;10.366;2024-03-25T11:50:13;16.60;82.80
20432;DHT22;10375;49.136;10.366;2024-03-25T11:52:40;16.50;81.10
20432;DHT22;10375;49.136;10.366;2024-03-25T11:55:07;16.50;87.60
20432;DHT22;10375;49.136;10.366;2024-03-25T11:57:38;16.50;83.20
20432;DHT22;10375;49.136;10.366;2024-03-25T12:00:05;16.00;81.50
20432;DHT22;10375;49.136;10.366;2024-03-25T12:02:32;15.40;83.60
20432;DHT22;10375;49.136;10.366;2024-03-25T12:04:58;15.50;86.40
20432;DHT22;10375;49.136;10.366;2024-03-25T12:07:24;16.10;77.90
20432;DHT22;10375;49.136;10.366;2024-03-25T12:09:50;16.10;77.40
20432;DHT22;10375;49.136;10.366;2024-03-25T12:12:35;15.80;76.80
20432;DHT22;10375;49.136;10.366;2024-03-25T12:15:01;15.30;78.30
20432;DHT22;10375;49.136;10.366;2024-03-25T12:17:30;14.60;83.10
20432;DHT22;10375;49.136;10.366;2024-03-25T12:20:06;14.40;85.60
20432;DHT22;10375;49.136;10.366;2024-03-25T12:22:39;14.00;80.20
20432;DHT22;10375;49.136;10.366;2024-03-25T12:25:07;13.40;84.10
20432;DHT22;10375;49.136;10.366;2024-03-25T12:27:35;13.10;88.10
20432;DHT22;10375;49.136;10.366;2024-03-25T12:30:07;13.50;92.00
20432;DHT22;10375;49.136;10.366;2024-03-25T12:32:44;14.00;86.50
20432;DHT22;10375;49.136;10.366;2024-03-25T12:35:15;13.80;83.30
20432;DHT22;10375;49.136;10.366;2024-03-25T12:37:43;13.50;84.10
20432;DHT22;10375;49.136;10.366;2024-03-25T12:40:11;13.40;84.80
20432;DHT22;10375;49.136;10.366;2024-03-25T12:42:38;13.20;82.30
20432;DHT22;10375;49.136;10.366;2024-03-25T12:45:07;13.00;84.20
20432;DHT22;10375;49.136;10.366;2024-03-25T12:47:33;12.80;82.10
20432;DHT22;10375;49.136;10.366;2024-03-25T12:50:00;12.50;87.10
20432;DHT22;10375;49.136;10.366;2024-03-25T12:52:26;12.40;87.50
20432;DHT22;10375;49.136;10.366;2024-03-25T12:54:52;12.50;90.90
20432;DHT22;10375;49.136;10.366;2024-03-25T12:57:18;13.10;92.20
20432;DHT22;10375;49.136;10.366;2024-03-25T12:59:45;13.50;90.00
20432;DHT22;10375;49.136;10.366;2024-03-25T13:02:12;13.60;87.00
20432;DHT22;10375;49.136;10.366;2024-03-25T13:04:38;13.50;80.20
20432;DHT22;10375;49.136;10.366;2024-03-25T13:07:05;13.10;83.70
20432;DHT22;10375;49.136;10.366;2024-03-25T13:09:32;12.90;82.60
20432;DHT22;10375;49.136;10.366;2024-03-25T13:11:58;12.70;83.80
20432;DHT22;10375;49.136;10.366;2024-03-25T13:14:25;12.50;86.50
20432;DHT22;10375;49.136;10.366;2024-03-25T13:16:51;12.60;86.20
20432;DHT22;10375;49.136;10.366;2024-03-25T13:19:18;12.60;88.50
20432;DHT22;10375;49.136;10.366;2024-03-25T13:21:44;12.60;85.10
20432;DHT22;10375;49.136;10.366;2024-03-25T13:24:10;12.30;84.60
20432;DHT22;10375;49.136;10.366;2024-03-25T13:26:36;12.40;84.90
20432;DHT22;10375;49.136;10.366;2024-03-25T13:29:02;12.50;86.80
20432;DHT22;10375;49.136;10.366;2024-03-25T13:31:31;12.20;88.80
20432;DHT22;10375;49.136;10.366;2024-03-25T13:33:57;12.30;86.30
20432;DHT22;10375;49.136;10.366;2024-03-25T13:36:23;12.50;90.20
20432;DHT22;10375;49.136;10.366;2024-03-25T13:38:49;12.70;83.60
20432;DHT22;10375;49.136;10.366;2024-03-25T13:41:15;12.80;85.10
20432;DHT22;10375;49.136;10.366;2024-03-25T13:43:44;13.00;85.80
20432;DHT22;10375;49.136;10.366;2024-03-25T13:46:10;13.20;88.00
20432;DHT22;10375;49.136;10.366;2024-03-25T13:48:38;13.30;87.30
20432;DHT22;10375;49.136;10.366;2024-03-25T13:51:04;13.60;84.50
20432;DHT22;10375;49.136;10.366;2024-03-25T13:53:30;13.80;85.20
20432;DHT22;10375;49.136;10.366;2024-03-25T13:55:56;13.60;81.80
20432;DHT22;10375;49.136;10.366;2024-03-25T13:58:22;13.60;84.10
20432;DHT22;10375;49.136;10.366;2024-03-25T14:00:48;13.50;82.30
20432;DHT22;10375;49.136;10.366;2024-03-25T14:03:15;13.80;85.00
20432;DHT22;10375;49.136;10.366;2024-03-25T14:05:42;13.40;84.60
20432;DHT22;10375;49.136;10.366;2024-03-25T14:08:09;12.60;82.70
20432;DHT22;10375;49.136;10.366;2024-03-25T14:10:36;12.10;86.10
20432;DHT22;10375;49.136;10.366;2024-03-25T14:13:02;12.00;86.20
20432;DHT22;10375;49.136;10.366;2024-03-25T14:15:29;11.90;88.00
20432;DHT22;10375;49.136;10.366;2024-03-25T14:17:55;11.50;86.60
20432;DHT22;10375;49.136;10.366;2024-03-25T14:20:21;11.20;90.00
20432;DHT22;10375;49.136;10.366;2024-03-25T14:22:47;10.90;91.20
20432;DHT22;10375;49.136;10.366;2024-03-25T14:25:13;10.70;90.00
20432;DHT22;10375;49.136;10.366;2024-03-25T14:27:41;10.70;88.30
20432;DHT22;10375;49.136;10.366;2024-03-25T14:30:07;11.10;90.00
20432;DHT22;10375;49.136;10.366;2024-03-25T14:32:37;11.50;90.60
20432;DHT22;10375;49.136;10.366;2024-03-25T14:35:05;11.80;89.60
20432;DHT22;10375;49.136;10.366;2024-03-25T14:37:35;12.00;87.30
20432;DHT22;10375;49.136;10.366;2024-03-25T14:40:01;12.30;83.30
20432;DHT22;10375;49.136;10.366;2024-03-25T14:42:27;12.50;89.10
20432;DHT22;10375;49.136;10.366;2024-03-25T14:44:53;12.50;83.40
20432;DHT22;10375;49.136;10.366;2024-03-25T14:47:19;12.60;88.80
20432;DHT22;10375;49.136;10.366;2024-03-25T14:49:45;12.50;90.50
20432;DHT22;10375;49.136;10.366;2024-03-25T14:52:11;12.40;89.10
20432;DHT22;10375;49.136;10.366;2024-03-25T14:54:37;12.20;86.30
20432;DHT22;10375;49.136;10.366;2024-03-25T14:57:03;12.10;88.10
20432;DHT22;10375;49.136;10.366;2024-03-25T14:59:30;12.30;88.30
20432;DHT22;10375;49.136;10.366;2024-03-25T15:02:00;12.60;90.00
20432;DHT22;10375;49.136;10.366;2024-03-25T15:04:27;12.30;90.60
20432;DHT22;10375;49.136;10.366;2024-03-25T15:06:53;12.20;86.90
20432;DHT22;10375;49.136;10.366;2024-03-25T15:09:19;11.90;88.10
20432;DHT22;10375;49.136;10.366;2024-03-25T15:11:46;12.00;88.90
20432;DHT22;10375;49.136;10.366;2024-03-25T15:14:12;12.10;87.80
20432;DHT22;10375;49.136;10.366;2024-03-25T15:16:38;11.90;87.90
20432;DHT22;10375;49.136;10.366;2024-03-25T15:19:04;11.80;88.60
20432;DHT22;10375;49.136;10.366;2024-03-25T15:21:30;11.60;89.80
20432;DHT22;10375;49.136;10.366;2024-03-25T15:23:56;11.50;88.20
20432;DHT22;10375;49.136;10.366;2024-03-25T15:26:23;11.60;91.30
20432;DHT22;10375;49.136;10.366;2024-03-25T15:28:49;11.70;91.50
20432;DHT22;10375;49.136;10.366;2024-03-25T15:31:15;11.80;91.10